Time;durP1;ratioP1;P1;durP2;ratioP2;P2;SDS_P1;SDS_P2;PMS_P1;PMS_P2;Temp;Humidity;BMP_temperature;BMP_pressure;BME280_temperature;BME280_humidity;BME280_pressure;Samples;Min_cycle;Max_cycle;Signal;HPM_P1;HPM_P2
2022/05/28 00:01:56;;;;;;;0.82;0.40;;;;;;;11.13;82.63;99053.25;5043759;28;20051;-59
2022/05/28 00:04:28;;;;;;;0.55;0.40;;;;;;;11.31;82.07;99062.16;5044707;28;20132;-59
2022/05/28 00:06:59;;;;;;;0.30;0.30;;;;;;;11.42;80.93;99053.88;5043675;28;20115;-59
2022/05/28 00:09:29;;;;;;;0.40;0.40;;;;;;;11.47;81.19;99049.31;5044447;28;20049;-59
2022/05/28 00:12:00;;;;;;;0.40;0.40;;;;;;;11.64;80.49;99054.72;5044131;28;20053;-60
2022/05/28 00:14:30;;;;;;;0.30;0.30;;;;;;;11.82;80.04;99058.38;5044180;28;20083;-59
2022/05/28 00:17:01;;;;;;;0.30;0.30;;;;;;;12.00;79.76;99054.16;5043573;28;20107;-59
2022/05/28 00:19:33;;;;;;;0.30;0.30;;;;;;;12.19;79.73;99059.50;5042509;28;20370;-59
2022/05/28 00:22:04;;;;;;;0.75;0.30;;;;;;;12.34;79.38;99065.84;5043739;28;20401;-60
2022/05/28 00:24:35;;;;;;;0.30;0.30;;;;;;;12.41;78.58;99072.53;5044228;28;20546;-59
2022/05/28 00:27:06;;;;;;;0.30;0.30;;;;;;;12.49;78.60;99086.16;5042078;28;20425;-60
2022/05/28 00:29:37;;;;;;;0.25;0.25;;;;;;;12.45;77.35;99074.09;5044150;28;20363;-59
2022/05/28 00:32:08;;;;;;;1.10;0.30;;;;;;;12.30;75.95;99085.22;5043446;28;20128;-59
2022/05/28 00:34:41;;;;;;;0.30;0.30;;;;;;;12.05;75.44;99083.63;5043573;28;20058;-59
2022/05/28 00:37:11;;;;;;;0.93;0.25;;;;;;;11.99;75.67;99086.50;5043609;28;20061;-60
2022/05/28 00:39:42;;;;;;;1.75;0.30;;;;;;;11.96;75.56;99091.03;5044077;28;20048;-59
2022/05/28 00:42:13;;;;;;;0.20;0.20;;;;;;;11.82;74.92;99078.47;5043112;28;20121;-59
2022/05/28 00:44:43;;;;;;;0.30;0.30;;;;;;;11.90;74.84;99097.34;5042739;28;20212;-59
2022/05/28 00:47:14;;;;;;;0.28;0.28;;;;;;;11.98;75.43;99095.28;5043865;28;20053;-59
2022/05/28 00:49:47;;;;;;;0.20;0.20;;;;;;;12.11;75.57;99100.03;5043050;28;20057;-59
2022/05/28 00:52:18;;;;;;;2.25;0.30;;;;;;;12.17;75.05;99099.75;5042327;28;20659;-59
2022/05/28 00:54:50;;;;;;;0.43;0.38;;;;;;;12.20;74.91;99099.63;5042063;28;20080;-59
2022/05/28 00:57:22;;;;;;;0.52;0.30;;;;;;;11.73;74.93;99014.28;5041213;28;20053;-59
2022/05/28 00:59:54;;;;;;;0.30;0.30;;;;;;;12.16;74.74;99082.34;5042653;28;20064;-59
2022/05/28 01:02:42;;;;;;;1.65;0.40;;;;;;;12.14;74.61;99094.66;5041672;28;20124;-59
2022/05/28 01:05:20;;;;;;;0.30;0.30;;;;;;;12.09;74.60;99097.47;5043036;28;20048;-59
2022/05/28 01:08:04;;;;;;;0.30;0.30;;;;;;;12.01;74.68;99095.16;5042685;28;20065;-60
2022/05/28 01:10:44;;;;;;;0.20;0.20;;;;;;;11.96;73.93;99097.13;5042128;28;20057;-59
2022/05/28 01:13:20;;;;;;;0.30;0.30;;;;;;;11.70;74.93;99071.09;5042519;28;20248;-59
2022/05/28 01:15:57;;;;;;;0.20;0.20;;;;;;;11.83;74.78;99095.84;5042979;28;20075;-59
2022/05/28 01:18:33;;;;;;;0.30;0.30;;;;;;;11.89;75.42;99090.41;5043335;28;20259;-59
2022/05/28 01:21:09;;;;;;;0.30;0.30;;;;;;;11.87;75.57;99072.16;5043613;28;20054;-59
2022/05/28 01:23:52;;;;;;;1.67;0.35;;;;;;;12.00;75.38;99098.69;5042839;28;20061;-59
2022/05/28 01:26:33;;;;;;;1.60;0.40;;;;;;;11.58;75.14;99007.91;5040868;28;20095;-59
2022/05/28 01:29:09;;;;;;;1.75;0.30;;;;;;;12.11;75.45;99084.31;5042402;28;20057;-59
2022/05/28 01:31:40;;;;;;;0.40;0.30;;;;;;;12.22;75.12;99108.28;5043405;28;20359;-59
2022/05/28 01:34:11;;;;;;;0.45;0.40;;;;;;;12.23;74.58;99102.09;5042838;28;20053;-59
2022/05/28 01:36:43;;;;;;;0.98;0.30;;;;;;;12.24;74.77;99090.75;5042555;28;20056;-59
2022/05/28 01:39:14;;;;;;;1.20;0.30;;;;;;;12.28;74.47;99102.78;5042354;28;20084;-59
2022/05/28 01:41:46;;;;;;;0.30;0.30;;;;;;;12.30;74.46;99095.69;5042616;28;20053;-59
2022/05/28 01:44:19;;;;;;;0.30;0.30;;;;;;;12.40;73.71;99090.94;5044557;28;20083;-59
2022/05/28 01:46:51;;;;;;;0.50;0.50;;;;;;;12.37;73.61;99096.31;5046118;28;20059;-59
2022/05/28 01:49:24;;;;;;;0.73;0.30;;;;;;;12.44;74.30;99097.75;5045715;28;20061;-59
2022/05/28 01:51:59;;;;;;;0.40;0.40;;;;;;;12.46;74.45;99107.25;5045808;28;20187;-59
2022/05/28 01:54:32;;;;;;;2.78;1.90;;;;;;;12.46;72.73;99102.00;5046123;28;20128;-59
2022/05/28 01:57:03;;;;;;;0.65;0.50;;;;;;;12.48;73.64;99110.66;5046444;28;20057;-59
2022/05/28 01:59:36;;;;;;;0.50;0.50;;;;;;;12.57;72.82;99103.31;5045766;28;20060;-59
2022/05/28 02:02:09;;;;;;;0.52;0.52;;;;;;;12.51;73.23;99079.09;5046104;28;20297;-59
2022/05/28 02:04:41;;;;;;;0.32;0.30;;;;;;;12.58;73.11;99089.28;5046808;28;20049;-59
2022/05/28 02:07:12;;;;;;;0.30;0.30;;;;;;;12.59;73.72;99081.38;5046245;28;20108;-59
2022/05/28 02:09:45;;;;;;;1.85;0.50;;;;;;;12.64;74.20;99099.53;5045498;28;20056;-59
2022/05/28 02:12:26;;;;;;;0.30;0.30;;;;;;;12.59;74.15;99091.00;5046726;28;20045;-59
2022/05/28 02:15:16;;;;;;;0.20;0.20;;;;;;;12.58;74.42;99099.75;5046214;28;20065;-60
2022/05/28 02:17:52;;;;;;;0.55;0.30;;;;;;;12.22;74.44;99037.56;5046143;28;20080;-60
2022/05/28 02:20:28;;;;;;;4.88;0.50;;;;;;;12.56;74.95;99097.22;5044616;28;20084;-60
2022/05/28 02:23:24;;;;;;;0.35;0.32;;;;;;;12.48;75.18;99094.06;5045810;28;20051;-60
2022/05/28 02:26:01;;;;;;;0.40;0.40;;;;;;;12.42;75.27;99097.81;5044851;28;20068;-60
2022/05/28 02:28:34;;;;;;;0.45;0.40;;;;;;;12.29;75.27;99084.38;5045440;28;20044;-60
2022/05/28 02:31:15;;;;;;;2.05;1.33;;;;;;;12.26;75.77;99099.38;5046577;28;20053;-60
2022/05/28 02:33:46;;;;;;;0.55;0.55;;;;;;;12.19;75.88;99095.31;5046456;28;20271;-60
2022/05/28 02:36:18;;;;;;;0.50;0.50;;;;;;;12.07;75.79;99094.91;5045197;28;20343;-61
2022/05/28 02:38:48;;;;;;;0.95;0.70;;;;;;;12.07;77.27;99099.28;5046104;28;20067;-60
2022/05/28 02:41:20;;;;;;;0.50;0.50;;;;;;;11.90;78.09;99076.41;5045347;28;20099;-61
2022/05/28 02:43:50;;;;;;;1.30;0.70;;;;;;;12.00;77.34;99106.53;5045759;28;20244;-60
2022/05/28 02:46:23;;;;;;;0.65;0.40;;;;;;;12.06;76.67;99108.91;5046260;28;20291;-60
2022/05/28 02:48:53;;;;;;;0.30;0.30;;;;;;;12.07;76.60;99100.13;5044987;28;20061;-60
2022/05/28 02:51:25;;;;;;;0.30;0.30;;;;;;;12.01;76.28;99095.16;5045343;28;20049;-60
2022/05/28 02:53:56;;;;;;;0.73;0.60;;;;;;;11.90;77.29;99097.34;5045159;28;20062;-60
2022/05/28 02:56:27;;;;;;;0.50;0.50;;;;;;;11.90;78.43;99112.22;5043536;28;20065;-61
2022/05/28 02:58:57;;;;;;;0.38;0.38;;;;;;;12.03;80.06;99109.03;5045062;28;20145;-60
2022/05/28 03:01:33;;;;;;;0.60;0.60;;;;;;;12.22;80.00;99097.81;5046005;28;20069;-59
2022/05/28 03:04:05;;;;;;;0.30;0.30;;;;;;;12.31;79.17;99094.81;5043781;28;20069;-59
2022/05/28 03:06:37;;;;;;;0.73;0.38;;;;;;;12.22;77.96;99066.38;5044917;28;20144;-60
2022/05/28 03:09:09;;;;;;;1.60;0.43;;;;;;;12.49;79.46;99116.75;5045250;28;20530;-61
2022/05/28 03:11:40;;;;;;;0.20;0.20;;;;;;;12.40;77.41;99110.13;5045768;28;20061;-60
2022/05/28 03:14:11;;;;;;;0.20;0.20;;;;;;;12.30;77.28;99116.66;5045594;28;20049;-60
2022/05/28 03:16:43;;;;;;;0.30;0.30;;;;;;;12.14;76.90;99115.59;5045161;28;20057;-61
2022/05/28 03:19:14;;;;;;;0.25;0.25;;;;;;;11.99;76.54;99106.59;5045743;28;20307;-60
2022/05/28 03:21:45;;;;;;;0.20;0.20;;;;;;;11.90;76.89;99106.97;5045955;28;20086;-60
2022/05/28 03:24:15;;;;;;;0.43;0.20;;;;;;;11.85;77.60;99109.75;5044204;28;20057;-60
2022/05/28 03:26:46;;;;;;;0.32;0.32;;;;;;;11.80;77.93;99102.06;5044516;28;20057;-60
2022/05/28 03:29:17;;;;;;;0.90;0.40;;;;;;;11.74;76.76;99091.00;5045722;28;20056;-59
2022/05/28 03:31:49;;;;;;;0.30;0.30;;;;;;;11.68;78.12;99106.94;5043310;28;20080;-60
2022/05/28 03:34:20;;;;;;;0.30;0.30;;;;;;;11.71;77.36;99101.59;5044877;28;20057;-59
2022/05/28 03:36:50;;;;;;;0.20;0.20;;;;;;;11.41;77.40;99052.19;5044628;28;20110;-60
2022/05/28 03:39:21;;;;;;;0.30;0.30;;;;;;;11.69;78.34;99103.41;5044692;28;20061;-60
2022/05/28 03:41:51;;;;;;;0.85;0.30;;;;;;;11.73;77.98;99099.75;5043426;28;20542;-60
2022/05/28 03:44:22;;;;;;;0.20;0.20;;;;;;;11.75;77.10;99103.16;5040952;28;20061;-60
2022/05/28 03:46:54;;;;;;;0.30;0.30;;;;;;;11.70;77.96;99095.50;5041576;28;20060;-60
2022/05/28 03:49:28;;;;;;;0.20;0.20;;;;;;;11.79;78.09;99104.75;5044231;28;20060;-60
2022/05/28 03:51:59;;;;;;;0.75;0.20;;;;;;;11.80;78.08;99101.22;5044247;28;20065;-59
2022/05/28 03:54:29;;;;;;;1.75;0.30;;;;;;;11.88;77.31;99104.41;5044561;28;20064;-58
2022/05/28 03:57:04;;;;;;;0.28;0.28;;;;;;;11.86;77.56;99098.38;5043621;28;20080;-60
2022/05/28 03:59:35;;;;;;;0.30;0.30;;;;;;;11.89;77.42;99090.41;5044610;28;20055;-60
2022/05/28 04:02:08;;;;;;;0.30;0.30;;;;;;;12.01;78.07;99100.41;5043364;28;20386;-60
2022/05/28 04:04:38;;;;;;;0.80;0.32;;;;;;;12.14;77.42;99098.13;5042634;28;20057;-60
2022/05/28 04:07:10;;;;;;;0.30;0.30;;;;;;;12.17;77.50;99084.06;5042064;28;20064;-60
2022/05/28 04:09:41;;;;;;;0.68;0.30;;;;;;;12.22;77.23;99095.19;5043441;28;20087;-60
2022/05/28 04:12:12;;;;;;;0.20;0.20;;;;;;;12.26;77.57;99078.44;5044059;28;20040;-60
2022/05/28 04:14:44;;;;;;;0.40;0.22;;;;;;;12.45;77.76;99100.28;5042501;28;20112;-59
2022/05/28 04:17:16;;;;;;;0.60;0.30;;;;;;;12.47;78.46;99103.69;5043555;28;20049;-60
2022/05/28 04:19:46;;;;;;;0.68;0.28;;;;;;;12.50;78.41;99103.59;5044114;28;20064;-60
2022/05/28 04:22:17;;;;;;;0.30;0.30;;;;;;;12.50;78.24;99098.34;5043755;28;20062;-60
2022/05/28 04:24:48;;;;;;;0.30;0.30;;;;;;;12.49;77.71;99101.88;5044086;28;20057;-60
2022/05/28 04:27:18;;;;;;;0.30;0.30;;;;;;;12.54;77.17;99091.19;5044024;28;20057;-59
2022/05/28 04:29:49;;;;;;;0.20;0.20;;;;;;;12.48;77.05;99100.19;5044441;28;20061;-60
2022/05/28 04:32:21;;;;;;;0.30;0.30;;;;;;;12.43;77.14;99096.91;5042903;28;20068;-59
2022/05/28 04:34:51;;;;;;;0.90;0.30;;;;;;;12.38;76.84;99104.13;5043715;28;20308;-60
2022/05/28 04:37:22;;;;;;;0.35;0.35;;;;;;;12.42;78.06;99110.91;5042530;28;20118;-60
2022/05/28 04:39:53;;;;;;;0.25;0.25;;;;;;;12.18;76.50;99072.66;5041152;28;20056;-59
2022/05/28 04:42:24;;;;;;;0.20;0.20;;;;;;;12.24;76.75;99103.84;5042781;28;20057;-59
2022/05/28 04:44:56;;;;;;;1.20;0.63;;;;;;;12.17;78.72;99110.25;5041991;28;20112;-60
2022/05/28 04:47:28;;;;;;;0.35;0.32;;;;;;;12.15;79.05;99112.06;5041699;28;20480;-59
2022/05/28 04:49:59;;;;;;;0.30;0.30;;;;;;;12.15;79.37;99106.81;5043400;28;20444;-59
2022/05/28 04:52:29;;;;;;;2.28;0.30;;;;;;;12.19;79.22;99103.16;5042819;28;20049;-58
2022/05/28 04:55:00;;;;;;;2.45;1.10;;;;;;;12.11;79.62;99100.03;5043736;28;20061;-58
2022/05/28 04:57:30;;;;;;;0.38;0.38;;;;;;;12.20;79.54;99110.94;5043535;28;20385;-59
2022/05/28 05:00:01;;;;;;;0.50;0.50;;;;;;;12.18;79.55;99112.81;5043829;28;20053;-59
2022/05/28 05:02:33;;;;;;;0.50;0.40;;;;;;;12.16;78.88;99104.16;5042825;28;20104;-59
2022/05/28 05:05:03;;;;;;;0.70;0.45;;;;;;;12.16;78.71;99103.31;5042786;28;20334;-59
2022/05/28 05:07:34;;;;;;;1.00;0.35;;;;;;;12.11;79.19;99110.50;5040745;28;20061;-59
2022/05/28 05:10:05;;;;;;;0.20;0.20;;;;;;;11.54;79.30;99029.00;5042700;28;20049;-59
2022/05/28 05:12:36;;;;;;;0.20;0.20;;;;;;;12.06;80.03;99114.16;5042802;28;20037;-60
2022/05/28 05:15:14;;;;;;;0.30;0.30;;;;;;;12.07;79.55;99115.84;5041564;28;20374;-60
2022/05/28 05:17:46;;;;;;;0.38;0.30;;;;;;;12.05;79.60;99117.66;5043238;28;20064;-59
2022/05/28 05:20:18;;;;;;;0.30;0.30;;;;;;;12.02;79.77;99120.41;5041708;28;20053;-59
2022/05/28 05:22:48;;;;;;;0.47;0.40;;;;;;;12.11;80.01;99136.69;5041876;28;20096;-59
2022/05/28 05:25:19;;;;;;;0.40;0.40;;;;;;;12.08;79.74;99127.16;5043210;28;20549;-59
2022/05/28 05:27:50;;;;;;;0.50;0.50;;;;;;;11.96;79.89;99123.28;5041725;28;20517;-60
2022/05/28 05:30:21;;;;;;;0.68;0.30;;;;;;;11.90;79.74;99136.59;5042621;28;20049;-60
2022/05/28 05:32:53;;;;;;;0.30;0.30;;;;;;;11.73;79.29;99123.31;5042466;28;20067;-60
2022/05/28 05:35:24;;;;;;;2.60;0.32;;;;;;;11.75;79.46;99139.81;5041438;28;20045;-59
2022/05/28 05:37:54;;;;;;;0.65;0.60;;;;;;;11.68;78.80;99143.56;5042246;28;20108;-59
2022/05/28 05:40:25;;;;;;;3.53;0.68;;;;;;;11.62;79.01;99145.50;5042979;28;20052;-59
2022/05/28 05:42:58;;;;;;;1.95;1.23;;;;;;;11.56;79.08;99148.38;5041402;28;20594;-58
2022/05/28 05:45:28;;;;;;;0.50;0.38;;;;;;;11.52;78.87;99165.09;5042118;28;20100;-60
2022/05/28 05:48:01;;;;;;;0.30;0.30;;;;;;;11.45;78.40;99158.38;5041982;28;20046;-58
2022/05/28 05:50:31;;;;;;;0.77;0.55;;;;;;;11.36;78.81;99163.97;5042863;28;20100;-58
2022/05/28 05:53:02;;;;;;;0.40;0.40;;;;;;;10.58;77.14;99082.25;5042362;28;20041;-59
2022/05/28 05:55:32;;;;;;;0.30;0.30;;;;;;;10.98;77.08;99184.50;5042843;28;20060;-59
2022/05/28 05:58:04;;;;;;;1.23;0.98;;;;;;;10.88;77.30;99183.09;5042227;28;20576;-59
2022/05/28 06:00:34;;;;;;;5.75;3.70;;;;;;;10.72;77.43;99188.88;5042228;28;20083;-59
2022/05/28 06:03:07;;;;;;;0.40;0.40;;;;;;;10.62;77.91;99187.47;5042264;28;20045;-58
2022/05/28 06:05:37;;;;;;;0.50;0.50;;;;;;;10.44;77.50;99198.53;5041062;28;20602;-57
2022/05/28 06:08:08;;;;;;;0.30;0.30;;;;;;;10.27;77.95;99192.06;5042818;28;20045;-58
2022/05/28 06:10:39;;;;;;;0.30;0.30;;;;;;;10.19;78.50;99199.31;5042935;28;20049;-60
2022/05/28 06:13:09;;;;;;;0.40;0.40;;;;;;;10.11;79.08;99185.66;5041530;28;20048;-59
2022/05/28 06:15:40;;;;;;;0.30;0.30;;;;;;;10.13;79.78;99194.25;5042706;28;20071;-58
2022/05/28 06:18:14;;;;;;;0.30;0.30;;;;;;;10.17;79.50;99201.09;5041779;28;20053;-58
2022/05/28 06:20:45;;;;;;;0.40;0.40;;;;;;;10.21;79.49;99196.63;5043114;28;20048;-59
2022/05/28 06:23:15;;;;;;;0.30;0.30;;;;;;;10.16;79.02;99191.56;5040977;28;20082;-60
2022/05/28 06:25:46;;;;;;;1.85;0.30;;;;;;;10.24;78.62;99194.78;5041371;28;20099;-60
2022/05/28 06:28:17;;;;;;;0.45;0.43;;;;;;;10.28;78.71;99204.28;5041717;28;20210;-60
2022/05/28 06:30:49;;;;;;;1.55;0.40;;;;;;;10.28;78.71;99201.66;5042389;28;20049;-60
2022/05/28 06:33:22;;;;;;;1.48;0.40;;;;;;;10.24;78.46;99213.06;5045066;28;20052;-60
2022/05/28 06:35:57;;;;;;;0.30;0.30;;;;;;;10.20;78.79;99206.22;5045965;28;20045;-60
2022/05/28 06:38:28;;;;;;;1.80;1.67;;;;;;;10.20;79.51;99227.09;5046170;28;20049;-60
2022/05/28 06:40:59;;;;;;;1.92;1.75;;;;;;;10.08;79.14;99217.94;5044553;28;20053;-60
2022/05/28 06:43:30;;;;;;;1.38;1.27;;;;;;;10.10;79.87;99241.34;5045612;28;20049;-60
2022/05/28 06:46:03;;;;;;;1.77;0.70;;;;;;;9.79;79.91;99199.69;5046378;28;20068;-60
2022/05/28 06:48:37;;;;;;;1.52;1.42;;;;;;;9.42;79.87;99159.91;5045831;28;20116;-60
2022/05/28 06:51:08;;;;;;;0.93;0.73;;;;;;;10.03;80.50;99245.88;5046040;28;20053;-61
2022/05/28 06:53:41;;;;;;;1.23;0.80;;;;;;;10.06;80.76;99258.00;5045945;28;20057;-60
2022/05/28 06:56:13;;;;;;;2.33;1.10;;;;;;;9.97;79.55;99232.19;5044601;28;20061;-61
2022/05/28 06:58:44;;;;;;;2.25;0.70;;;;;;;10.03;80.59;99237.22;5045746;28;20129;-60
2022/05/28 07:01:17;;;;;;;0.32;0.32;;;;;;;9.89;81.02;99235.88;5046026;28;20052;-60
2022/05/28 07:03:49;;;;;;;0.45;0.45;;;;;;;9.86;81.67;99259.47;5044659;28;20045;-60
2022/05/28 07:06:20;;;;;;;0.40;0.40;;;;;;;9.89;82.01;99254.16;5045695;28;20308;-60
2022/05/28 07:08:50;;;;;;;0.70;0.50;;;;;;;9.98;82.40;99257.38;5045101;28;20385;-61
2022/05/28 07:11:21;;;;;;;0.65;0.40;;;;;;;10.10;82.56;99262.22;5044815;28;20244;-61
2022/05/28 07:13:51;;;;;;;0.40;0.40;;;;;;;10.17;82.65;99268.97;5045013;28;20041;-61
2022/05/28 07:16:22;;;;;;;0.52;0.50;;;;;;;10.22;82.89;99261.84;5045275;28;20053;-61
2022/05/28 07:18:54;;;;;;;0.30;0.30;;;;;;;10.29;83.33;99268.63;5045527;28;20108;-61
2022/05/28 07:21:25;;;;;;;3.13;2.00;;;;;;;10.36;83.42;99264.94;5044636;28;20053;-61
2022/05/28 07:23:56;;;;;;;1.10;0.80;;;;;;;10.44;83.79;99262.06;5044341;28;20053;-61
2022/05/28 07:26:26;;;;;;;0.30;0.30;;;;;;;10.55;84.25;99269.56;5044214;28;20164;-61
2022/05/28 07:28:57;;;;;;;1.27;1.08;;;;;;;10.63;83.97;99267.53;5044683;28;20049;-61
2022/05/28 07:31:28;;;;;;;0.57;0.50;;;;;;;10.72;83.75;99261.19;5044509;28;20124;-62
2022/05/28 07:34:00;;;;;;;0.50;0.50;;;;;;;10.76;83.55;99276.72;5045115;28;20060;-62
2022/05/28 07:36:31;;;;;;;0.75;0.60;;;;;;;10.74;82.42;99268.06;5044483;28;20348;-61
2022/05/28 07:39:02;;;;;;;0.40;0.40;;;;;;;10.72;82.59;99267.25;5044444;28;20056;-61
2022/05/28 07:41:32;;;;;;;0.68;0.50;;;;;;;10.71;82.44;99276.00;5044931;28;20111;-61
2022/05/28 07:44:03;;;;;;;2.70;1.50;;;;;;;10.67;82.43;99274.38;5044374;28;20414;-62
2022/05/28 07:46:35;;;;;;;1.88;1.35;;;;;;;10.60;81.91;99275.50;5045327;28;20065;-61
2022/05/28 07:49:07;;;;;;;1.00;0.90;;;;;;;10.48;82.19;99268.91;5044260;28;20112;-61
2022/05/28 07:51:38;;;;;;;0.50;0.50;;;;;;;10.49;82.59;99275.84;5044877;28;20754;-62
2022/05/28 07:54:09;;;;;;;0.63;0.40;;;;;;;10.48;82.33;99278.50;5042701;28;20049;-62
2022/05/28 07:56:40;;;;;;;0.98;0.40;;;;;;;10.54;82.90;99278.31;5044802;28;20390;-62
2022/05/28 07:59:10;;;;;;;1.00;0.63;;;;;;;10.52;82.91;99272.28;5044017;28;20056;-62
2022/05/28 08:01:41;;;;;;;1.38;1.08;;;;;;;10.46;83.36;99272.44;5044622;28;20057;-62
2022/05/28 08:04:14;;;;;;;6.20;4.30;;;;;;;10.44;83.99;99282.97;5044787;28;20098;-62
2022/05/28 08:06:45;;;;;;;2.22;1.70;;;;;;;10.48;84.46;99284.59;5045001;28;20060;-61
2022/05/28 08:09:16;;;;;;;2.70;1.08;;;;;;;10.51;84.96;99299.31;5042943;28;20060;-62
2022/05/28 08:11:46;;;;;;;1.98;0.73;;;;;;;10.48;85.39;99278.50;5044751;28;20053;-62
2022/05/28 08:14:17;;;;;;;0.80;0.73;;;;;;;10.47;85.90;99298.53;5044085;28;20041;-61
2022/05/28 08:16:48;;;;;;;0.80;0.50;;;;;;;10.43;86.61;99285.63;5043594;28;20053;-63
2022/05/28 08:19:20;;;;;;;1.13;0.80;;;;;;;10.47;87.30;99297.69;5044479;28;20120;-61
2022/05/28 08:24:38;;;;;;;0.70;0.50;;;;;;;10.45;87.73;99299.47;5044218;28;20079;-64
2022/05/28 08:27:08;;;;;;;2.33;0.63;;;;;;;10.56;87.86;99302.63;5043319;28;20045;-64
2022/05/28 08:29:39;;;;;;;1.75;0.63;;;;;;;10.62;87.85;99286.75;5044406;28;20061;-63
2022/05/28 08:32:16;;;;;;;0.50;0.50;;;;;;;10.68;86.83;99291.75;5044325;28;20076;-62
2022/05/28 08:34:48;;;;;;;4.30;2.40;;;;;;;10.75;86.59;99303.72;5044669;28;20099;-62
2022/05/28 08:37:19;;;;;;;4.22;3.47;;;;;;;10.79;86.72;99289.66;5043399;28;20056;-61
2022/05/28 08:39:49;;;;;;;4.13;2.45;;;;;;;10.73;87.55;99283.78;5043023;28;20126;-62
2022/05/28 08:42:23;;;;;;;4.25;1.27;;;;;;;10.55;88.59;99278.25;5044055;28;20052;-63
2022/05/28 08:44:56;;;;;;;1.83;1.20;;;;;;;10.14;89.71;99248.19;5043939;28;20084;-64
2022/05/28 08:47:30;;;;;;;4.00;1.05;;;;;;;10.13;89.53;99280.41;5043971;28;20247;-63
2022/05/28 08:50:02;;;;;;;3.97;1.20;;;;;;;10.04;90.13;99299.81;5042404;28;20067;-62
2022/05/28 08:52:38;;;;;;;3.38;1.10;;;;;;;9.87;89.73;99292.47;5043887;28;20082;-63
2022/05/28 08:55:13;;;;;;;2.55;1.00;;;;;;;9.78;89.83;99277.06;5041977;28;20049;-62
2022/05/28 08:57:53;;;;;;;0.55;0.55;;;;;;;9.78;89.87;99277.06;5043622;28;20130;-62
2022/05/28 09:00:33;;;;;;;1.63;0.88;;;;;;;9.97;89.02;99292.22;5043622;28;20044;-63
2022/05/28 09:03:08;;;;;;;1.77;0.90;;;;;;;9.96;88.37;99290.47;5042544;28;20084;-64
2022/05/28 09:05:50;;;;;;;11.65;1.85;;;;;;;9.89;88.50;99306.34;5043248;28;20087;-62
2022/05/28 09:08:31;;;;;;;4.72;1.88;;;;;;;9.67;88.90;99320.88;5043603;28;20053;-61
2022/05/28 09:11:06;;;;;;;5.93;2.22;;;;;;;9.44;89.46;99319.75;5043151;28;20061;-64
2022/05/28 09:13:42;;;;;;;6.03;2.90;;;;;;;9.29;90.40;99314.97;5042554;28;20148;-63
2022/05/28 09:16:22;;;;;;;7.85;2.50;;;;;;;9.16;90.87;99292.69;5043262;28;20099;-61
2022/05/28 09:18:55;;;;;;;7.05;1.75;;;;;;;9.18;91.21;99314.38;5042653;28;20055;-63
2022/05/28 09:21:28;;;;;;;6.82;1.98;;;;;;;9.16;91.72;99308.34;5043111;28;20100;-62
2022/05/28 09:24:01;;;;;;;5.60;2.20;;;;;;;9.10;91.79;99311.13;5041999;28;20271;-62
2022/05/28 09:26:34;;;;;;;9.55;1.80;;;;;;;9.13;91.61;99329.28;5043253;28;20041;-64
2022/05/28 09:29:17;;;;;;;3.80;2.03;;;;;;;9.03;91.62;99324.28;5042780;28;20056;-62
2022/05/28 09:32:00;;;;;;;4.38;1.90;;;;;;;8.96;91.42;99299.31;5043186;28;20088;-62
2022/05/28 09:34:42;;;;;;;5.70;1.70;;;;;;;8.91;91.63;99308.97;5043390;28;20060;-62
2022/05/28 09:37:22;;;;;;;4.43;1.50;;;;;;;8.85;91.65;99324.75;5042170;28;20095;-62
2022/05/28 09:39:59;;;;;;;6.65;2.10;;;;;;;8.81;91.57;99323.09;5042153;28;20061;-60
2022/05/28 09:42:43;;;;;;;3.00;1.65;;;;;;;8.75;91.50;99349.31;5043044;28;20057;-62
2022/05/28 09:45:24;;;;;;;6.10;1.58;;;;;;;8.68;91.37;99345.13;5042285;28;20095;-60
2022/05/28 09:47:56;;;;;;;5.47;1.80;;;;;;;8.59;91.48;99344.47;5043167;28;20091;-63
2022/05/28 09:50:28;;;;;;;5.03;1.50;;;;;;;8.64;91.68;99341.75;5043398;28;20063;-62
2022/05/28 09:55:59;;;;;;;2.70;1.55;;;;;;;8.56;92.07;99339.31;5042909;28;20061;-60
2022/05/28 09:58:33;;;;;;;6.55;1.40;;;;;;;8.47;91.65;99344.72;5042437;28;20294;-61
2022/05/28 10:01:10;;;;;;;3.95;1.20;;;;;;;8.43;91.86;99337.88;5043120;28;20060;-62
2022/05/28 10:06:31;;;;;;;2.15;1.20;;;;;;;8.28;91.97;99348.59;5045246;28;20049;-60
2022/05/28 10:09:14;;;;;;;2.63;1.30;;;;;;;8.06;91.94;99343.84;5046971;28;20068;-60
2022/05/28 10:11:52;;;;;;;4.55;1.50;;;;;;;7.98;91.71;99361.34;5046188;28;20052;-61
2022/05/28 10:14:24;;;;;;;2.58;1.10;;;;;;;7.78;92.04;99352.19;5047058;28;20049;-61
2022/05/28 10:17:00;;;;;;;3.42;1.60;;;;;;;7.73;92.15;99360.97;5046828;28;20095;-61
2022/05/28 10:19:35;;;;;;;2.70;1.40;;;;;;;7.69;92.00;99349.78;5046896;28;20053;-61
2022/05/28 10:22:08;;;;;;;2.45;1.35;;;;;;;7.48;91.99;99339.78;5045833;28;20304;-59
2022/05/28 10:24:46;;;;;;;3.10;1.40;;;;;;;7.47;92.11;99343.28;5046606;28;20057;-59
2022/05/28 10:27:28;;;;;;;2.58;1.10;;;;;;;7.51;92.73;99360.53;5045690;28;20041;-60
2022/05/28 10:30:02;;;;;;;2.92;1.20;;;;;;;7.28;92.09;99333.22;5046715;28;20340;-59
2022/05/28 10:32:39;;;;;;;2.30;1.20;;;;;;;7.35;92.52;99355.59;5046277;28;20112;-60
2022/05/28 10:35:17;;;;;;;2.17;0.95;;;;;;;7.30;92.87;99377.38;5046329;28;20056;-60
2022/05/28 10:37:48;;;;;;;4.35;1.02;;;;;;;7.37;93.09;99398.91;5045414;28;20064;-60
2022/05/28 10:40:24;;;;;;;4.35;1.20;;;;;;;7.33;92.91;99398.94;5045777;28;20359;-61
2022/05/28 10:42:59;;;;;;;2.50;1.10;;;;;;;7.38;93.45;99396.28;5045244;28;20053;-60
2022/05/28 10:45:38;;;;;;;1.92;1.30;;;;;;;7.35;93.35;99415.38;5045824;28;20087;-60
2022/05/28 10:48:32;;;;;;;2.78;1.20;;;;;;;7.31;93.75;99400.75;5045585;28;20045;-60
2022/05/28 10:51:19;;;;;;;3.08;1.20;;;;;;;7.26;93.66;99405.16;5044591;28;20053;-60
2022/05/28 10:54:05;;;;;;;2.65;1.33;;;;;;;7.21;93.63;99414.75;5044966;28;20128;-60
2022/05/28 10:56:49;;;;;;;4.38;1.45;;;;;;;7.13;93.88;99403.63;5044586;28;20053;-60
2022/05/28 10:59:46;;;;;;;2.88;1.30;;;;;;;7.11;93.62;99428.75;5045280;28;20103;-59
2022/05/28 11:02:46;;;;;;;2.88;1.40;;;;;;;7.04;93.58;99432.34;5046277;28;20124;-59
2022/05/28 11:05:27;;;;;;;2.53;1.30;;;;;;;7.04;94.23;99427.13;5046054;28;20045;-60
2022/05/28 11:08:05;;;;;;;2.42;1.13;;;;;;;7.02;94.27;99424.59;5045111;28;20285;-60
2022/05/28 11:10:47;;;;;;;4.22;1.40;;;;;;;7.00;94.66;99441.06;5045491;28;20066;-59
2022/05/28 11:13:36;;;;;;;2.55;1.30;;;;;;;7.00;94.50;99446.28;5046194;28;20057;-60
2022/05/28 11:16:30;;;;;;;4.55;1.55;;;;;;;6.96;94.57;99449.78;5044238;28;20347;-60
2022/05/28 11:19:13;;;;;;;3.17;1.55;;;;;;;6.90;94.89;99443.78;5015898;28;20362;-59
2022/05/28 11:22:06;;;;;;;2.10;1.50;;;;;;;6.84;94.53;99443.91;5044735;28;20049;-59
2022/05/28 11:24:54;;;;;;;4.03;1.98;;;;;;;6.81;94.82;99464.69;5044919;28;20055;-59
2022/05/28 11:27:42;;;;;;;2.83;1.65;;;;;;;6.76;94.69;99463.91;5043984;28;20064;-59
2022/05/28 11:30:19;;;;;;;4.65;1.85;;;;;;;6.66;95.23;99451.94;5045537;28;20425;-58
2022/05/28 11:32:56;;;;;;;12.63;2.10;;;;;;;6.66;95.13;99457.13;5045452;28;20061;-59
2022/05/28 11:35:42;;;;;;;5.18;2.00;;;;;;;6.65;95.57;99456.25;5044037;28;20052;-59
2022/05/28 11:38:20;;;;;;;2.25;1.80;;;;;;;6.63;95.52;99470.16;5045578;28;20041;-59
2022/05/28 11:41:00;;;;;;;4.65;1.70;;;;;;;6.62;95.91;99460.66;5045299;28;20061;-61
2022/05/28 11:43:34;;;;;;;3.33;1.73;;;;;;;6.58;95.72;99474.53;5044583;28;20055;-60
2022/05/28 11:46:19;;;;;;;5.30;2.03;;;;;;;6.48;96.12;99469.44;5044341;28;20053;-60
2022/05/28 11:51:51;;;;;;;4.63;1.90;;;;;;;6.54;96.54;99489.31;5044908;28;20065;-59
2022/05/28 11:54:28;;;;;;;4.13;1.65;;;;;;;6.59;97.57;99476.25;5044297;28;20146;-61
2022/05/28 11:57:04;;;;;;;3.20;1.83;;;;;;;6.43;96.32;99434.91;5044465;28;20049;-59
2022/05/28 11:59:38;;;;;;;4.18;2.13;;;;;;;6.73;96.45;99474.34;5043277;28;20173;-60
2022/05/28 12:02:16;;;;;;;7.97;2.33;;;;;;;6.80;96.42;99475.97;5043251;28;20111;-60
2022/05/28 12:04:46;;;;;;;5.38;2.20;;;;;;;6.83;96.40;99481.13;5042595;28;20378;-60
2022/05/28 12:07:34;;;;;;;3.28;2.00;;;;;;;6.85;96.40;99478.50;5043115;28;20060;-60
2022/05/28 12:10:08;;;;;;;4.10;2.30;;;;;;;6.88;96.22;99484.50;5043669;28;20045;-60
2022/05/28 12:12:54;;;;;;;6.95;2.20;;;;;;;6.95;96.34;99494.81;5043848;28;20060;-60
2022/05/28 12:15:28;;;;;;;4.70;2.03;;;;;;;6.96;96.11;99486.13;5042367;28;20057;-60
2022/05/28 12:18:05;;;;;;;4.88;1.60;;;;;;;6.91;96.44;99479.28;5043664;28;20087;-60
2022/05/28 12:20:38;;;;;;;3.05;1.90;;;;;;;7.03;96.07;99461.81;5043558;28;20041;-60